Capt. Harry — WDC3690 — position and weather

sailwx.info

Track history (hours):
 
Tides and Currents Weather Stations Pressure Air Temp Water Temp Dewpoint Dewpoint Depression Visibility Wind Speed Wind Dir Waves Ship Positions

Capt. Harry

Owner: Wilmington Tug, Inc., New Castle, DE. More information available from US FCC via Universal Licensing System and Coast Guard Vessel Documentation Center.

Last reported at 2017-Feb-26 01:27 UTC. Time now 2017-Feb-26 03:28 UTC.
Position N 38°55' W 075°09'.

Type: Tug. MMSI: 367012530.

Date/timePositionNaut miles runAvg speedWind from/ knotsBaromVisibWave heightAir tempDewpointWater temp
2017-Feb-26 01:27N 38°55' W 075°09'20 2.2
2017-Feb-25 16:18N 39°14' W 075°18'810.8
2017-Feb-25 15:34N 39°20' W 075°25'10 9.8
2017-Feb-25 14:33N 39°27' W 075°33'7 7.5
2017-Feb-25 13:33N 39°34' W 075°34'1 1.3
2017-Feb-25 12:33N 39°35' W 075°35'0 0.0
2017-Feb-25 11:34N 39°35' W 075°35'0 0.0
2017-Feb-25 10:34N 39°35' W 075°35'0 0.0
2017-Feb-25 09:33N 39°35' W 075°35'0 0.0
2017-Feb-25 08:33N 39°35' W 075°35'0 0.0
2017-Feb-25 07:34N 39°35' W 075°35'0 0.2
2017-Feb-25 06:33N 39°35' W 075°36'0 0.0
2017-Feb-25 05:33N 39°35' W 075°36'3 2.5
2017-Feb-25 04:33N 39°34' W 075°33'5 5.5
2017-Feb-25 03:33N 39°39' W 075°33'4 4.1
2017-Feb-25 02:33N 39°43' W 075°32'0 0.0
2017-Feb-25 01:33N 39°43' W 075°32'0 0.0
2017-Feb-25 00:33N 39°43' W 075°32'0 0.0
2017-Feb-24 23:33N 39°43' W 075°32'0 0.0
2017-Feb-24 22:33N 39°43' W 075°32'0 0.0
2017-Feb-24 21:33N 39°43' W 075°32'0 0.0
2017-Feb-24 20:33N 39°43' W 075°32'0 0.5
2017-Feb-24 19:33N 39°43' W 075°31'0 0.1
2017-Feb-24 18:33N 39°43' W 075°31'0 0.0
2017-Feb-24 17:33N 39°43' W 075°31'0 0.0
2017-Feb-24 16:33N 39°43' W 075°31'0 0.0
2017-Feb-24 15:33N 39°43' W 075°31'0 0.0
2017-Feb-24 14:33N 39°43' W 075°31'0 0.0
2017-Feb-24 13:34N 39°43' W 075°31'0 0.0
2017-Feb-24 12:34N 39°43' W 075°31'0 0.0
2017-Feb-24 11:34N 39°43' W 075°31'0 0.0
2017-Feb-24 10:34N 39°43' W 075°31'0 0.0
2017-Feb-24 09:34N 39°43' W 075°31'0 0.3
2017-Feb-24 08:33N 39°43' W 075°31'1110.6
2017-Feb-24 07:34N 39°50' W 075°21'4 3.9
2017-Feb-24 06:34N 39°51' W 075°16'2 1.5
2017-Feb-24 05:33N 39°51' W 075°18'4 4.1
2017-Feb-24 04:33N 39°52' W 075°13'2 1.7
2017-Feb-24 03:33N 39°53' W 075°11'0 0.0
2017-Feb-24 02:33N 39°53' W 075°11'0 0.0
2017-Feb-24 01:34N 39°53' W 075°11'0 0.0
2017-Feb-24 00:34N 39°53' W 075°11'0 0.0
2017-Feb-23 23:33N 39°53' W 075°11'0 0.0
2017-Feb-23 22:34N 39°53' W 075°11'0 0.0
2017-Feb-23 21:33N 39°53' W 075°11'0 0.0
2017-Feb-23 20:33N 39°53' W 075°11'0 0.0
2017-Feb-23 19:33N 39°53' W 075°11'0 0.0
2017-Feb-23 18:33N 39°53' W 075°11'0 0.0
2017-Feb-23 17:33N 39°53' W 075°11'0 0.0
2017-Feb-23 16:33N 39°53' W 075°11'2 1.8
2017-Feb-23 15:33N 39°52' W 075°13'0 0.0
2017-Feb-23 14:33N 39°52' W 075°13'0 0.0
2017-Feb-23 13:34N 39°52' W 075°13'3 2.8
2017-Feb-23 12:34N 39°53' W 075°10'1 1.2
2017-Feb-23 11:33N 39°53' W 075°11'0 0.0
2017-Feb-23 10:34N 39°53' W 075°11'0 0.0
2017-Feb-23 09:34N 39°53' W 075°11'0 0.0
2017-Feb-23 08:33N 39°53' W 075°11'0 0.0
2017-Feb-23 07:33N 39°53' W 075°11'0 0.0
2017-Feb-23 06:34N 39°53' W 075°11'0 0.2
2017-Feb-23 05:33N 39°53' W 075°11'2 2.4
2017-Feb-23 04:34N 39°54' W 075°08'0 0.0
2017-Feb-23 03:34N 39°54' W 075°08'0 0.0
2017-Feb-23 02:34N 39°54' W 075°08'0 0.0
2017-Feb-23 01:34N 39°54' W 075°08'0 0.0
2017-Feb-23 00:33N 39°54' W 075°08'0 0.2
2017-Feb-22 23:34N 39°54' W 075°08'2 1.9
2017-Feb-22 22:34N 39°53' W 075°10'2 1.7
2017-Feb-22 21:34N 39°54' W 075°08'0 0.0
2017-Feb-22 20:33N 39°54' W 075°08'2 2.4
2017-Feb-22 19:33N 39°53' W 075°11'0 0.0
2017-Feb-22 18:33N 39°53' W 075°11'0 0.0
2017-Feb-22 17:34N 39°53' W 075°11'0 0.0
2017-Feb-22 16:33N 39°53' W 075°11'0 0.0
2017-Feb-22 15:33N 39°53' W 075°11'0 0.0
2017-Feb-22 14:34N 39°53' W 075°11'0 0.0
2017-Feb-22 13:33N 39°53' W 075°11'0 0.0
2017-Feb-22 12:34N 39°53' W 075°11'0 0.0
2017-Feb-22 11:34N 39°53' W 075°11'0 0.0
2017-Feb-22 10:34N 39°53' W 075°11'0 0.0
2017-Feb-22 09:34N 39°53' W 075°11'2 2.4
2017-Feb-22 08:33N 39°54' W 075°08'2 2.0
2017-Feb-22 07:33N 39°53' W 075°10'1 0.7
2017-Feb-22 06:34N 39°53' W 075°11'0 0.0
2017-Feb-22 05:33N 39°53' W 075°11'0 0.0
2017-Feb-22 04:34N 39°53' W 075°11'0 0.0
2017-Feb-22 03:34N 39°53' W 075°11'0 0.0
2017-Feb-22 02:33N 39°53' W 075°11'0 0.0
2017-Feb-22 01:34N 39°53' W 075°11'0 0.0
2017-Feb-22 00:33N 39°53' W 075°11'0 0.0
2017-Feb-21 23:33N 39°53' W 075°11'0 0.0
2017-Feb-21 22:33N 39°53' W 075°11'0 0.0
2017-Feb-21 21:34N 39°53' W 075°11'0 0.0
2017-Feb-21 20:33N 39°53' W 075°11'0 0.0
2017-Feb-21 19:34N 39°53' W 075°11'0 0.0
2017-Feb-21 18:34N 39°53' W 075°11'0 0.0
2017-Feb-21 17:33N 39°53' W 075°11'0 0.0
2017-Feb-21 16:33N 39°53' W 075°11'0 0.0
2017-Feb-21 15:34N 39°53' W 075°11'0 0.0
2017-Feb-21 14:31N 39°53' W 075°11'0 0.0
2017-Feb-21 13:33N 39°53' W 075°11'0 0.0
2017-Feb-21 12:33N 39°53' W 075°11'0 0.0
2017-Feb-21 11:33N 39°53' W 075°11'0 0.0
2017-Feb-21 10:34N 39°53' W 075°11'3 3.0
2017-Feb-21 09:32N 39°51' W 075°14'2 1.6
2017-Feb-21 08:33N 39°51' W 075°16'0 0.4
2017-Feb-21 07:34N 39°51' W 075°16'4 4.3
2017-Feb-21 06:33N 39°53' W 075°11'1 0.7
2017-Feb-21 05:11N 39°53' W 075°10'2 2.4
2017-Feb-21 04:33N 39°53' W 075°12'0 0.4
2017-Feb-21 03:33N 39°53' W 075°11'0 0.0
2017-Feb-21 02:19N 39°53' W 075°11'0 0.0
2017-Feb-21 01:33N 39°53' W 075°11'0 0.0
2017-Feb-21 00:33N 39°53' W 075°11'0 0.0
2017-Feb-20 23:33N 39°53' W 075°11'4 3.6
2017-Feb-20 22:33N 39°51' W 075°15'0 0.1
2017-Feb-20 21:33N 39°51' W 075°15'0 0.0
2017-Feb-20 20:33N 39°51' W 075°15'4 3.5
2017-Feb-20 19:31N 39°53' W 075°11'0 0.0
2017-Feb-20 18:33N 39°53' W 075°11'0 0.0
2017-Feb-20 17:33N 39°53' W 075°11'0 0.0
2017-Feb-20 16:33N 39°53' W 075°11'0 0.0
2017-Feb-20 15:34N 39°53' W 075°11'0 0.0
2017-Feb-20 14:33N 39°53' W 075°11'3 2.4
2017-Feb-20 13:29N 39°52' W 075°14'910.2
2017-Feb-20 12:33N 39°48' W 075°25'1 0.5
2017-Feb-20 11:33N 39°48' W 075°26'0 0.4
2017-Feb-20 10:32N 39°48' W 075°26'0 0.4
2017-Feb-20 09:34N 39°48' W 075°26'0 0.0
2017-Feb-20 08:33N 39°48' W 075°26'0 0.0
2017-Feb-20 07:34N 39°48' W 075°26'0 0.0
2017-Feb-20 06:33N 39°48' W 075°26'0 0.0
2017-Feb-20 05:26N 39°48' W 075°26'0 0.0
2017-Feb-20 04:34N 39°48' W 075°26'0 0.0
2017-Feb-20 03:33N 39°48' W 075°26'0 0.0
2017-Feb-20 02:33N 39°48' W 075°26'0 0.0
2017-Feb-20 01:33N 39°48' W 075°26'0 0.0
2017-Feb-20 00:34N 39°48' W 075°26'1 1.2
2017-Feb-19 23:33N 39°49' W 075°24'0 0.1
2017-Feb-19 22:34N 39°49' W 075°24'0 0.1
2017-Feb-19 21:34N 39°49' W 075°24'1 1.2
2017-Feb-19 20:33N 39°48' W 075°26'0 0.0
2017-Feb-19 19:33N 39°48' W 075°26'0 0.1
2017-Feb-19 18:33N 39°48' W 075°26'0 0.1
2017-Feb-19 17:33N 39°48' W 075°26'0 0.0
2017-Feb-19 16:33N 39°48' W 075°26'0 0.2
2017-Feb-19 15:33N 39°48' W 075°26'0 0.2
2017-Feb-19 14:33N 39°48' W 075°26'0 0.5
2017-Feb-19 13:33N 39°48' W 075°25'0 0.4
2017-Feb-19 12:33N 39°48' W 075°26'1 0.5
2017-Feb-19 11:33N 39°48' W 075°26'6 5.7
2017-Feb-19 10:33N 39°43' W 075°30'0 0.5
2017-Feb-19 09:33N 39°43' W 075°31'0 0.0
2017-Feb-19 08:33N 39°43' W 075°31'0 0.0
2017-Feb-19 07:33N 39°43' W 075°31'0 0.0
2017-Feb-19 06:33N 39°43' W 075°31'0 0.0
2017-Feb-19 05:33N 39°43' W 075°31'0 0.0
2017-Feb-19 04:33N 39°43' W 075°31'0 0.0
2017-Feb-19 03:33N 39°43' W 075°31'0 0.0
2017-Feb-19 02:33N 39°43' W 075°31'0 0.0
2017-Feb-19 01:33N 39°43' W 075°31'0 0.0
2017-Feb-19 00:33N 39°43' W 075°31'1 0.5
2017-Feb-18 23:33N 39°43' W 075°31'1 0.5
2017-Feb-18 22:33N 39°43' W 075°31'0 0.0
2017-Feb-18 21:33N 39°43' W 075°31'0 0.0
2017-Feb-18 20:33N 39°43' W 075°31'0 0.0
2017-Feb-18 19:33N 39°43' W 075°31'0 0.0
2017-Feb-18 18:33N 39°43' W 075°31'0 0.0
2017-Feb-18 17:33N 39°43' W 075°31'0 0.0
2017-Feb-18 16:33N 39°43' W 075°31'0 0.0
2017-Feb-18 15:33N 39°43' W 075°31'0 0.0
2017-Feb-18 14:33N 39°43' W 075°31'0 0.0
2017-Feb-18 13:33N 39°43' W 075°31'0 0.0
2017-Feb-18 12:33N 39°43' W 075°31'0 0.0
2017-Feb-18 11:33N 39°43' W 075°31'0 0.0
2017-Feb-18 10:33N 39°43' W 075°31'0 0.0
2017-Feb-18 09:33N 39°43' W 075°31'0 0.0
2017-Feb-18 08:33N 39°43' W 075°31'0 0.0
2017-Feb-18 07:33N 39°43' W 075°31'0 0.0
2017-Feb-18 06:33N 39°43' W 075°31'0 0.0
2017-Feb-18 05:28N 39°43' W 075°31'2 2.5
2017-Feb-18 04:33N 39°41' W 075°32'10 9.9
2017-Feb-18 03:33N 39°31' W 075°33'10 9.9
2017-Feb-18 02:33N 39°22' W 075°27'1110.9
2017-Feb-18 01:33N 39°14' W 075°18'9 0.5
2017-Feb-17 08:33N 39°20' W 075°25'1010.5
2017-Feb-17 07:33N 39°29' W 075°33'10 9.9
2017-Feb-17 06:34N 39°39' W 075°34'5 4.8
2017-Feb-17 05:33N 39°43' W 075°31'0 0.0
2017-Feb-17 04:34N 39°43' W 075°31'0 0.0
2017-Feb-17 03:33N 39°43' W 075°31'0 0.0
2017-Feb-17 02:33N 39°43' W 075°31'0 0.0
2017-Feb-17 01:34N 39°43' W 075°31'0 0.0
2017-Feb-17 00:33N 39°43' W 075°31'4 3.6
2017-Feb-16 23:33N 39°40' W 075°33'5 5.1
2017-Feb-16 22:33N 39°35' W 075°35'0 0.1
2017-Feb-16 21:33N 39°35' W 075°35'1010.1
2017-Feb-16 20:33N 39°25' W 075°31'1313.0
2017-Feb-16 19:33N 39°16' W 075°20'0 0.0
2017-Feb-16 06:08N 39°15' W 075°20'711.6
2017-Feb-16 05:33N 39°20' W 075°25'1111.2
2017-Feb-16 04:33N 39°30' W 075°33'1211.6
2017-Feb-16 03:34N 39°41' W 075°31'2 1.9
2017-Feb-16 02:33N 39°43' W 075°31'0 0.0
2017-Feb-16 01:33N 39°43' W 075°31'  
Track history (hours):
 
Tides and Currents Weather Stations Pressure Air Temp Water Temp Dewpoint Dewpoint Depression Visibility Wind Speed Wind Dir Waves Ship Positions

Capt. Harry

Owner: Wilmington Tug, Inc., New Castle, DE. More information available from US FCC via Universal Licensing System and Coast Guard Vessel Documentation Center.

Last reported at 2017-Feb-26 01:27 UTC. Time now 2017-Feb-26 03:28 UTC.
Position N 38°55' W 075°09'.

Type: Tug. MMSI: 367012530.

Date/timePositionNaut miles runAvg speedWind from/ knotsBaromVisibWave heightAir tempDewpointWater temp
2017-Feb-26 01:27N 38°55' W 075°09'20 2.2
2017-Feb-25 16:18N 39°14' W 075°18'810.8
2017-Feb-25 15:34N 39°20' W 075°25'10 9.8
2017-Feb-25 14:33N 39°27' W 075°33'7 7.5
2017-Feb-25 13:33N 39°34' W 075°34'1 1.3
2017-Feb-25 12:33N 39°35' W 075°35'0 0.0
2017-Feb-25 11:34N 39°35' W 075°35'0 0.0
2017-Feb-25 10:34N 39°35' W 075°35'0 0.0
2017-Feb-25 09:33N 39°35' W 075°35'0 0.0
2017-Feb-25 08:33N 39°35' W 075°35'0 0.0
2017-Feb-25 07:34N 39°35' W 075°35'0 0.2
2017-Feb-25 06:33N 39°35' W 075°36'0 0.0
2017-Feb-25 05:33N 39°35' W 075°36'3 2.5
2017-Feb-25 04:33N 39°34' W 075°33'5 5.5
2017-Feb-25 03:33N 39°39' W 075°33'4 4.1
2017-Feb-25 02:33N 39°43' W 075°32'0 0.0
2017-Feb-25 01:33N 39°43' W 075°32'0 0.0
2017-Feb-25 00:33N 39°43' W 075°32'0 0.0
2017-Feb-24 23:33N 39°43' W 075°32'0 0.0
2017-Feb-24 22:33N 39°43' W 075°32'0 0.0
2017-Feb-24 21:33N 39°43' W 075°32'0 0.0
2017-Feb-24 20:33N 39°43' W 075°32'0 0.5
2017-Feb-24 19:33N 39°43' W 075°31'0 0.1
2017-Feb-24 18:33N 39°43' W 075°31'0 0.0
2017-Feb-24 17:33N 39°43' W 075°31'0 0.0
2017-Feb-24 16:33N 39°43' W 075°31'0 0.0
2017-Feb-24 15:33N 39°43' W 075°31'0 0.0
2017-Feb-24 14:33N 39°43' W 075°31'0 0.0
2017-Feb-24 13:34N 39°43' W 075°31'0 0.0
2017-Feb-24 12:34N 39°43' W 075°31'0 0.0
2017-Feb-24 11:34N 39°43' W 075°31'0 0.0
2017-Feb-24 10:34N 39°43' W 075°31'0 0.0
2017-Feb-24 09:34N 39°43' W 075°31'0 0.3
2017-Feb-24 08:33N 39°43' W 075°31'1110.6
2017-Feb-24 07:34N 39°50' W 075°21'4 3.9
2017-Feb-24 06:34N 39°51' W 075°16'2 1.5
2017-Feb-24 05:33N 39°51' W 075°18'4 4.1
2017-Feb-24 04:33N 39°52' W 075°13'2 1.7
2017-Feb-24 03:33N 39°53' W 075°11'0 0.0
2017-Feb-24 02:33N 39°53' W 075°11'0 0.0
2017-Feb-24 01:34N 39°53' W 075°11'0 0.0
2017-Feb-24 00:34N 39°53' W 075°11'0 0.0
2017-Feb-23 23:33N 39°53' W 075°11'0 0.0
2017-Feb-23 22:34N 39°53' W 075°11'0 0.0
2017-Feb-23 21:33N 39°53' W 075°11'0 0.0
2017-Feb-23 20:33N 39°53' W 075°11'0 0.0
2017-Feb-23 19:33N 39°53' W 075°11'0 0.0
2017-Feb-23 18:33N 39°53' W 075°11'0 0.0
2017-Feb-23 17:33N 39°53' W 075°11'0 0.0
2017-Feb-23 16:33N 39°53' W 075°11'2 1.8
2017-Feb-23 15:33N 39°52' W 075°13'0 0.0
2017-Feb-23 14:33N 39°52' W 075°13'0 0.0
2017-Feb-23 13:34N 39°52' W 075°13'3 2.8
2017-Feb-23 12:34N 39°53' W 075°10'1 1.2
2017-Feb-23 11:33N 39°53' W 075°11'0 0.0
2017-Feb-23 10:34N 39°53' W 075°11'0 0.0
2017-Feb-23 09:34N 39°53' W 075°11'0 0.0
2017-Feb-23 08:33N 39°53' W 075°11'0 0.0
2017-Feb-23 07:33N 39°53' W 075°11'0 0.0
2017-Feb-23 06:34N 39°53' W 075°11'0 0.2
2017-Feb-23 05:33N 39°53' W 075°11'2 2.4
2017-Feb-23 04:34N 39°54' W 075°08'0 0.0
2017-Feb-23 03:34N 39°54' W 075°08'0 0.0
2017-Feb-23 02:34N 39°54' W 075°08'0 0.0
2017-Feb-23 01:34N 39°54' W 075°08'0 0.0
2017-Feb-23 00:33N 39°54' W 075°08'0 0.2
2017-Feb-22 23:34N 39°54' W 075°08'2 1.9
2017-Feb-22 22:34N 39°53' W 075°10'2 1.7
2017-Feb-22 21:34N 39°54' W 075°08'0 0.0
2017-Feb-22 20:33N 39°54' W 075°08'2 2.4
2017-Feb-22 19:33N 39°53' W 075°11'0 0.0
2017-Feb-22 18:33N 39°53' W 075°11'0 0.0
2017-Feb-22 17:34N 39°53' W 075°11'0 0.0
2017-Feb-22 16:33N 39°53' W 075°11'0 0.0
2017-Feb-22 15:33N 39°53' W 075°11'0 0.0
2017-Feb-22 14:34N 39°53' W 075°11'0 0.0
2017-Feb-22 13:33N 39°53' W 075°11'0 0.0
2017-Feb-22 12:34N 39°53' W 075°11'0 0.0
2017-Feb-22 11:34N 39°53' W 075°11'0 0.0
2017-Feb-22 10:34N 39°53' W 075°11'0 0.0
2017-Feb-22 09:34N 39°53' W 075°11'2 2.4
2017-Feb-22 08:33N 39°54' W 075°08'2 2.0
2017-Feb-22 07:33N 39°53' W 075°10'1 0.7
2017-Feb-22 06:34N 39°53' W 075°11'0 0.0
2017-Feb-22 05:33N 39°53' W 075°11'0 0.0
2017-Feb-22 04:34N 39°53' W 075°11'0 0.0
2017-Feb-22 03:34N 39°53' W 075°11'0 0.0
2017-Feb-22 02:33N 39°53' W 075°11'0 0.0
2017-Feb-22 01:34N 39°53' W 075°11'0 0.0
2017-Feb-22 00:33N 39°53' W 075°11'0 0.0
2017-Feb-21 23:33N 39°53' W 075°11'0 0.0
2017-Feb-21 22:33N 39°53' W 075°11'0 0.0
2017-Feb-21 21:34N 39°53' W 075°11'0 0.0
2017-Feb-21 20:33N 39°53' W 075°11'0 0.0
2017-Feb-21 19:34N 39°53' W 075°11'0 0.0
2017-Feb-21 18:34N 39°53' W 075°11'0 0.0
2017-Feb-21 17:33N 39°53' W 075°11'0 0.0
2017-Feb-21 16:33N 39°53' W 075°11'0 0.0
2017-Feb-21 15:34N 39°53' W 075°11'0 0.0
2017-Feb-21 14:31N 39°53' W 075°11'0 0.0
2017-Feb-21 13:33N 39°53' W 075°11'0 0.0
2017-Feb-21 12:33N 39°53' W 075°11'0 0.0
2017-Feb-21 11:33N 39°53' W 075°11'0 0.0
2017-Feb-21 10:34N 39°53' W 075°11'3 3.0
2017-Feb-21 09:32N 39°51' W 075°14'2 1.6
2017-Feb-21 08:33N 39°51' W 075°16'0 0.4
2017-Feb-21 07:34N 39°51' W 075°16'4 4.3
2017-Feb-21 06:33N 39°53' W 075°11'1 0.7
2017-Feb-21 05:11N 39°53' W 075°10'2 2.4
2017-Feb-21 04:33N 39°53' W 075°12'0 0.4
2017-Feb-21 03:33N 39°53' W 075°11'0 0.0
2017-Feb-21 02:19N 39°53' W 075°11'0 0.0
2017-Feb-21 01:33N 39°53' W 075°11'0 0.0
2017-Feb-21 00:33N 39°53' W 075°11'0 0.0
2017-Feb-20 23:33N 39°53' W 075°11'4 3.6
2017-Feb-20 22:33N 39°51' W 075°15'0 0.1
2017-Feb-20 21:33N 39°51' W 075°15'0 0.0
2017-Feb-20 20:33N 39°51' W 075°15'4 3.5
2017-Feb-20 19:31N 39°53' W 075°11'0 0.0
2017-Feb-20 18:33N 39°53' W 075°11'0 0.0
2017-Feb-20 17:33N 39°53' W 075°11'0 0.0
2017-Feb-20 16:33N 39°53' W 075°11'0 0.0
2017-Feb-20 15:34N 39°53' W 075°11'0 0.0
2017-Feb-20 14:33N 39°53' W 075°11'3 2.4
2017-Feb-20 13:29N 39°52' W 075°14'910.2
2017-Feb-20 12:33N 39°48' W 075°25'1 0.5
2017-Feb-20 11:33N 39°48' W 075°26'0 0.4
2017-Feb-20 10:32N 39°48' W 075°26'0 0.4
2017-Feb-20 09:34N 39°48' W 075°26'0 0.0
2017-Feb-20 08:33N 39°48' W 075°26'0 0.0
2017-Feb-20 07:34N 39°48' W 075°26'0 0.0
2017-Feb-20 06:33N 39°48' W 075°26'0 0.0
2017-Feb-20 05:26N 39°48' W 075°26'0 0.0
2017-Feb-20 04:34N 39°48' W 075°26'0 0.0
2017-Feb-20 03:33N 39°48' W 075°26'0 0.0
2017-Feb-20 02:33N 39°48' W 075°26'0 0.0
2017-Feb-20 01:33N 39°48' W 075°26'0 0.0
2017-Feb-20 00:34N 39°48' W 075°26'1 1.2
2017-Feb-19 23:33N 39°49' W 075°24'0 0.1
2017-Feb-19 22:34N 39°49' W 075°24'0 0.1
2017-Feb-19 21:34N 39°49' W 075°24'1 1.2
2017-Feb-19 20:33N 39°48' W 075°26'0 0.0
2017-Feb-19 19:33N 39°48' W 075°26'0 0.1
2017-Feb-19 18:33N 39°48' W 075°26'0 0.1
2017-Feb-19 17:33N 39°48' W 075°26'0 0.0
2017-Feb-19 16:33N 39°48' W 075°26'0 0.2
2017-Feb-19 15:33N 39°48' W 075°26'0 0.2
2017-Feb-19 14:33N 39°48' W 075°26'0 0.5
2017-Feb-19 13:33N 39°48' W 075°25'0 0.4
2017-Feb-19 12:33N 39°48' W 075°26'1 0.5
2017-Feb-19 11:33N 39°48' W 075°26'6 5.7
2017-Feb-19 10:33N 39°43' W 075°30'0 0.5
2017-Feb-19 09:33N 39°43' W 075°31'0 0.0
2017-Feb-19 08:33N 39°43' W 075°31'0 0.0
2017-Feb-19 07:33N 39°43' W 075°31'0 0.0
2017-Feb-19 06:33N 39°43' W 075°31'0 0.0
2017-Feb-19 05:33N 39°43' W 075°31'0 0.0
2017-Feb-19 04:33N 39°43' W 075°31'0 0.0
2017-Feb-19 03:33N 39°43' W 075°31'0 0.0
2017-Feb-19 02:33N 39°43' W 075°31'0 0.0
2017-Feb-19 01:33N 39°43' W 075°31'0 0.0
2017-Feb-19 00:33N 39°43' W 075°31'1 0.5
2017-Feb-18 23:33N 39°43' W 075°31'1 0.5
2017-Feb-18 22:33N 39°43' W 075°31'0 0.0
2017-Feb-18 21:33N 39°43' W 075°31'0 0.0
2017-Feb-18 20:33N 39°43' W 075°31'0 0.0
2017-Feb-18 19:33N 39°43' W 075°31'0 0.0
2017-Feb-18 18:33N 39°43' W 075°31'0 0.0
2017-Feb-18 17:33N 39°43' W 075°31'0 0.0
2017-Feb-18 16:33N 39°43' W 075°31'0 0.0
2017-Feb-18 15:33N 39°43' W 075°31'0 0.0
2017-Feb-18 14:33N 39°43' W 075°31'0 0.0
2017-Feb-18 13:33N 39°43' W 075°31'0 0.0
2017-Feb-18 12:33N 39°43' W 075°31'0 0.0
2017-Feb-18 11:33N 39°43' W 075°31'0 0.0
2017-Feb-18 10:33N 39°43' W 075°31'0 0.0
2017-Feb-18 09:33N 39°43' W 075°31'0 0.0
2017-Feb-18 08:33N 39°43' W 075°31'0 0.0
2017-Feb-18 07:33N 39°43' W 075°31'0 0.0
2017-Feb-18 06:33N 39°43' W 075°31'0 0.0
2017-Feb-18 05:28N 39°43' W 075°31'2 2.5
2017-Feb-18 04:33N 39°41' W 075°32'10 9.9
2017-Feb-18 03:33N 39°31' W 075°33'10 9.9
2017-Feb-18 02:33N 39°22' W 075°27'1110.9
2017-Feb-18 01:33N 39°14' W 075°18'9 0.5
2017-Feb-17 08:33N 39°20' W 075°25'1010.5
2017-Feb-17 07:33N 39°29' W 075°33'10 9.9
2017-Feb-17 06:34N 39°39' W 075°34'5 4.8
2017-Feb-17 05:33N 39°43' W 075°31'0 0.0
2017-Feb-17 04:34N 39°43' W 075°31'0 0.0
2017-Feb-17 03:33N 39°43' W 075°31'0 0.0
2017-Feb-17 02:33N 39°43' W 075°31'0 0.0
2017-Feb-17 01:34N 39°43' W 075°31'0 0.0
2017-Feb-17 00:33N 39°43' W 075°31'4 3.6
2017-Feb-16 23:33N 39°40' W 075°33'5 5.1
2017-Feb-16 22:33N 39°35' W 075°35'0 0.1
2017-Feb-16 21:33N 39°35' W 075°35'1010.1
2017-Feb-16 20:33N 39°25' W 075°31'1313.0
2017-Feb-16 19:33N 39°16' W 075°20'0 0.0
2017-Feb-16 06:08N 39°15' W 075°20'711.6
2017-Feb-16 05:33N 39°20' W 075°25'1111.2
2017-Feb-16 04:33N 39°30' W 075°33'1211.6
2017-Feb-16 03:34N 39°41' W 075°31'2 1.9
2017-Feb-16 02:33N 39°43' W 075°31'0 0.0
2017-Feb-16 01:33N 39°43' W 075°31'  

Dump ship's entire track history